Waconia, Minnesota
Current Conditions -  °F | °C
As of 10:54 PM on Wednesday 22 Oct 2014 (Local Time) from KGYL Reporting Station
Light Rain Light Rain  
Wind Chill: 58°   Ceiling: 4100
Heat Index: 58°   Visibility: 10mi
Dew Point: 47°   Wind: 10mph
Humidity: 65%   Direction: 170°S
Pressure: 30.01"   Gusts: 18mph
Location:  44.85°N, 93.79°W
Report Text: KGYL 230354Z AUTO 17009G16KT 150V210 10SM -RA BKN041 OVC085 15/08 A3001 RMK AO2 T01470081
Loading
Personal Weather Stations






























Interactive Weather Map
Tropical Storm Tracking
New forecast layout! Learn more

10-Day Weather Forecast

Advertisements
Track Severe Weather on mobile